Time;durP1;ratioP1;P1;durP2;ratioP2;P2;SDS_P1;SDS_P2;PMS_P1;PMS_P2;Temp;Humidity;BMP_temperature;BMP_pressure;BME280_temperature;BME280_humidity;BME280_pressure;Samples;Min_cycle;Max_cycle;Signal;HPM_P1;HPM_P2
2022/04/07 00:02:26;;;;;;;35.27;20.57;;;7.80;99.90;;;;;;10221848;28;20651;-86
2022/04/07 00:07:29;;;;;;;35.50;20.73;;;7.90;99.90;;;;;;10285666;28;20225;-87
2022/04/07 00:12:33;;;;;;;35.07;20.33;;;7.90;99.90;;;;;;10285287;28;20241;-87
2022/04/07 00:17:36;;;;;;;31.77;18.97;;;8.00;99.90;;;;;;10287354;28;20249;-86
2022/04/07 00:22:39;;;;;;;37.50;19.57;;;8.00;99.90;;;;;;10278967;28;20222;-87
2022/04/07 00:27:48;;;;;;;35.63;18.37;;;8.00;99.90;;;;;;10247092;29;20289;-86
2022/04/07 00:32:51;;;;;;;27.50;17.37;;;8.00;99.90;;;;;;10249920;28;20256;-87
2022/04/07 00:37:53;;;;;;;29.10;17.90;;;8.00;99.90;;;;;;10286264;28;20319;-86
2022/04/07 00:42:56;;;;;;;32.50;16.70;;;7.90;99.90;;;;;;10282740;28;20258;-86
2022/04/07 00:47:58;;;;;;;33.40;19.13;;;7.80;99.90;;;;;;10254718;28;20621;-86
2022/04/07 00:53:02;;;;;;;31.17;19.13;;;7.70;99.90;;;;;;10293229;28;20233;-87
2022/04/07 00:58:05;;;;;;;30.33;18.63;;;7.50;99.90;;;;;;10293943;28;20261;-86
2022/04/07 01:03:09;;;;;;;32.57;19.30;;;7.50;99.90;;;;;;10287556;28;20652;-87
2022/04/07 01:08:11;;;;;;;33.13;18.77;;;7.50;99.90;;;;;;10254365;29;20735;-87
2022/04/07 01:13:15;;;;;;;39.63;22.57;;;7.40;99.90;;;;;;10257098;28;20606;-86
2022/04/07 01:18:18;;;;;;;32.80;19.73;;;7.30;99.90;;;;;;10278825;28;20312;-86
2022/04/07 01:23:22;;;;;;;34.93;20.67;;;7.30;99.90;;;;;;10258111;28;20213;-87
2022/04/07 01:28:25;;;;;;;32.33;19.93;;;7.40;99.90;;;;;;10285878;28;20232;-87
2022/04/07 01:33:29;;;;;;;30.30;18.30;;;7.50;99.90;;;;;;10275141;28;20230;-86
2022/04/07 01:38:32;;;;;;;23.77;15.63;;;7.70;99.90;;;;;;10291998;28;20649;-86
2022/04/07 01:43:35;;;;;;;24.47;14.50;;;8.10;99.90;;;;;;10284924;28;20738;-86
2022/04/07 01:48:39;;;;;;;23.27;15.40;;;8.00;99.90;;;;;;10289713;28;20271;-86
2022/04/07 01:53:42;;;;;;;25.77;16.00;;;8.60;99.90;;;;;;10283802;28;20229;-86
2022/04/07 01:58:46;;;;;;;25.67;15.00;;;9.80;99.90;;;;;;10251807;28;20313;-86
2022/04/07 02:03:49;;;;;;;24.57;13.47;;;9.50;99.90;;;;;;10259675;28;20237;-87
2022/04/07 02:08:54;;;;;;;21.63;14.20;;;8.80;99.90;;;;;;10292328;28;20229;-86
2022/04/07 02:13:56;;;;;;;30.10;13.97;;;8.20;99.90;;;;;;10284528;28;20292;-87
2022/04/07 02:18:58;;;;;;;24.70;15.93;;;8.00;99.90;;;;;;10288979;28;20257;-87
2022/04/07 02:24:01;;;;;;;29.03;16.20;;;7.90;99.90;;;;;;10278468;28;20234;-86
2022/04/07 02:29:05;;;;;;;27.43;15.70;;;7.70;99.90;;;;;;10258038;28;20726;-87
2022/04/07 02:34:07;;;;;;;27.63;16.73;;;7.60;99.90;;;;;;10289439;28;20256;-87
2022/04/07 02:39:10;;;;;;;29.77;16.60;;;7.60;99.90;;;;;;10291007;28;20645;-86
2022/04/07 02:44:12;;;;;;;29.53;17.00;;;7.50;99.90;;;;;;10267847;28;20549;-86
2022/04/07 02:49:15;;;;;;;25.77;16.33;;;7.40;99.90;;;;;;10253783;28;20237;-87
2022/04/07 02:54:18;;;;;;;21.73;12.90;;;7.40;99.90;;;;;;10248382;28;20633;-86
2022/04/07 02:59:20;;;;;;;29.53;15.63;;;7.60;99.90;;;;;;10248782;29;20712;-86
2022/04/07 03:04:24;;;;;;;17.37;11.93;;;7.60;99.90;;;;;;10258213;28;20198;-85
2022/04/07 03:09:26;;;;;;;13.57;9.70;;;7.60;99.90;;;;;;10286538;28;20676;-87
2022/04/07 03:14:29;;;;;;;16.53;9.90;;;7.70;99.90;;;;;;10274704;28;20210;-87
2022/04/07 03:19:32;;;;;;;16.13;10.90;;;7.60;99.90;;;;;;10289439;28;20269;-86
2022/04/07 03:24:34;;;;;;;15.93;10.63;;;7.60;99.90;;;;;;10260714;28;20254;-86
2022/04/07 03:29:40;;;;;;;25.27;15.10;;;7.60;99.90;;;;;;10279188;28;20233;-87
2022/04/07 03:34:43;;;;;;;24.13;14.40;;;7.50;99.90;;;;;;10249005;29;20304;-87
2022/04/07 03:39:45;;;;;;;34.43;17.17;;;7.30;99.90;;;;;;10270307;28;20276;-85
2022/04/07 03:44:47;;;;;;;18.83;11.10;;;7.50;99.90;;;;;;10303157;28;20233;-86
2022/04/07 03:49:51;;;;;;;14.53;9.03;;;7.60;99.90;;;;;;10281964;28;20273;-86
2022/04/07 03:54:53;;;;;;;16.47;8.97;;;7.70;99.90;;;;;;10246370;29;20233;-86
2022/04/07 03:59:56;;;;;;;18.00;10.87;;;7.80;99.90;;;;;;10256418;28;20269;-85
2022/04/07 04:04:59;;;;;;;16.17;10.37;;;7.50;99.90;;;;;;10279750;28;20225;-85
2022/04/07 04:10:01;;;;;;;18.17;10.53;;;7.60;99.90;;;;;;10286794;28;20252;-85
2022/04/07 04:15:04;;;;;;;20.17;11.40;;;7.50;99.90;;;;;;10261724;28;20284;-85
2022/04/07 04:20:08;;;;;;;19.57;10.93;;;7.50;99.90;;;;;;10267030;28;20231;-86
2022/04/07 04:25:10;;;;;;;17.43;11.37;;;7.40;99.90;;;;;;10260752;28;20203;-84
2022/04/07 04:30:17;;;;;;;16.13;10.63;;;7.30;99.90;;;;;;10259772;28;20656;-85
2022/04/07 04:35:20;;;;;;;15.13;9.97;;;7.20;99.90;;;;;;10294771;28;20238;-85
2022/04/07 04:40:23;;;;;;;17.70;11.07;;;7.00;99.90;;;;;;10258662;28;20249;-85
2022/04/07 04:45:25;;;;;;;14.53;10.73;;;7.00;99.90;;;;;;10275730;28;20285;-86
2022/04/07 04:50:28;;;;;;;20.17;10.60;;;6.90;99.90;;;;;;10278727;28;20662;-86
2022/04/07 04:55:30;;;;;;;17.63;10.83;;;6.80;99.90;;;;;;10253440;28;20686;-85
2022/04/07 05:00:34;;;;;;;20.63;11.57;;;6.80;99.90;;;;;;10263519;28;20740;-86
2022/04/07 05:05:36;;;;;;;20.67;10.80;;;6.70;99.90;;;;;;10253855;28;20632;-86
2022/04/07 05:10:40;;;;;;;18.00;9.60;;;6.80;99.90;;;;;;10251911;28;20552;-86
2022/04/07 05:15:43;;;;;;;20.93;9.87;;;6.80;99.90;;;;;;10283263;28;20760;-86
2022/04/07 05:20:45;;;;;;;20.67;11.37;;;7.00;99.90;;;;;;10291485;28;20253;-86
2022/04/07 05:25:48;;;;;;;21.37;11.40;;;7.20;99.90;;;;;;10263968;28;20218;-85
2022/04/07 05:30:50;;;;;;;26.63;12.83;;;7.40;99.90;;;;;;10285326;28;20229;-86
2022/04/07 05:35:53;;;;;;;17.40;10.30;;;7.50;99.90;;;;;;10261902;28;20229;-86
2022/04/07 05:40:56;;;;;;;18.40;11.50;;;7.70;99.90;;;;;;10289101;28;20257;-85
2022/04/07 05:45:58;;;;;;;17.37;12.30;;;7.90;99.90;;;;;;10290379;28;20253;-86
2022/04/07 05:51:01;;;;;;;17.07;10.20;;;8.10;99.90;;;;;;10278794;28;20277;-86
2022/04/07 05:56:04;;;;;;;14.10;9.67;;;;;;;;;;10250788;29;20641;-86
2022/04/07 06:01:06;;;;;;;13.97;9.17;;;9.10;99.90;;;;;;10252217;28;20624;-87
2022/04/07 06:06:09;;;;;;;12.23;7.77;;;10.00;99.90;;;;;;10277161;28;20229;-86
2022/04/07 06:11:13;;;;;;;12.20;7.23;;;10.80;99.90;;;;;;10290330;28;20635;-86
2022/04/07 06:16:16;;;;;;;15.80;7.47;;;10.90;98.90;;;;;;10245345;28;20585;-86
2022/04/07 06:21:19;;;;;;;13.33;6.67;;;11.20;96.50;;;;;;10239824;28;20255;-86
2022/04/07 06:26:21;;;;;;;15.80;6.43;;;10.30;98.40;;;;;;10253120;28;20246;-87
2022/04/07 06:31:24;;;;;;;10.17;6.47;;;10.30;98.90;;;;;;10264684;28;20235;-87
2022/04/07 06:36:32;;;;;;;13.87;6.80;;;10.00;99.90;;;;;;10284860;28;20237;-87
2022/04/07 06:41:35;;;;;;;11.50;6.33;;;10.60;98.30;;;;;;10267548;28;20260;-87
2022/04/07 06:46:37;;;;;;;13.03;8.20;;;10.90;97.80;;;;;;10248512;28;20533;-87
2022/04/07 06:51:40;;;;;;;10.20;6.63;;;11.50;95.20;;;;;;10247971;29;20691;-87
2022/04/07 06:56:42;;;;;;;6.83;5.00;;;12.30;92.90;;;;;;10247590;28;20242;-87
2022/04/07 07:01:45;;;;;;;11.03;6.90;;;;;;;;;;10264091;28;20286;-87
2022/04/07 07:06:48;;;;;;;8.83;5.00;;;13.60;86.50;;;;;;10230086;29;20236;-87
2022/04/07 07:11:51;;;;;;;13.63;8.83;;;13.00;90.30;;;;;;10245618;29;20709;-87
2022/04/07 07:16:53;;;;;;;6.93;4.20;;;13.30;86.60;;;;;;10247862;29;20304;-87
2022/04/07 07:21:56;;;;;;;6.70;5.23;;;13.20;88.70;;;;;;10230822;29;20262;-87
2022/04/07 07:26:59;;;;;;;6.20;4.83;;;13.20;89.40;;;;;;10245971;29;20246;-87
2022/04/07 07:32:01;;;;;;;8.03;5.80;;;12.80;90.60;;;;;;10245369;29;20237;-87
2022/04/07 07:37:05;;;;;;;11.77;6.57;;;13.50;86.30;;;;;;10244763;28;20304;-87
2022/04/07 07:42:07;;;;;;;9.43;6.93;;;13.90;86.70;;;;;;10221904;29;20273;-87
2022/04/07 07:47:10;;;;;;;13.67;8.47;;;13.80;84.30;;;;;;10239588;28;20214;-88
2022/04/07 07:52:13;;;;;;;9.17;6.00;;;;;;;;;;10269240;28;20222;-87
2022/04/07 07:57:15;;;;;;;7.13;4.60;;;14.20;81.80;;;;;;10273787;28;20270;-88
2022/04/07 08:02:18;;;;;;;14.40;7.87;;;13.90;84.50;;;;;;10273182;28;20276;-88
2022/04/07 08:07:23;;;;;;;10.23;6.93;;;14.30;80.00;;;;;;10260472;28;20242;-88
2022/04/07 08:12:27;;;;;;;10.80;6.90;;;14.80;79.20;;;;;;10245921;29;20230;-88
2022/04/07 08:17:29;;;;;;;5.57;4.23;;;14.20;79.80;;;;;;10244676;29;20230;-88
2022/04/07 08:22:32;;;;;;;6.23;4.03;;;13.80;81.60;;;;;;10257087;28;20656;-87
2022/04/07 08:27:35;;;;;;;7.57;3.97;;;14.20;81.00;;;;;;10270156;28;20233;-88
2022/04/07 08:32:37;;;;;;;5.57;4.03;;;14.30;79.60;;;;;;10286582;28;20237;-87
2022/04/07 08:37:40;;;;;;;5.53;3.87;;;14.20;80.90;;;;;;10284254;28;20344;-87
2022/04/07 08:42:42;;;;;;;4.90;3.47;;;14.20;79.50;;;;;;10285384;28;20234;-88
2022/04/07 08:47:48;;;;;;;5.10;3.97;;;14.70;80.20;;;;;;10278271;28;20206;-90
2022/04/07 08:52:53;;;;;;;4.07;2.70;;;14.90;77.80;;;;;;10278236;28;20206;-96
2022/04/07 08:57:55;;;;;;;6.93;2.60;;;15.80;76.10;;;;;;10282919;28;20297;-95
2022/04/07 09:02:58;;;;;;;3.10;2.80;;;16.40;73.80;;;;;;10266758;28;20257;-96
2022/04/07 09:08:09;;;;;;;3.30;2.73;;;16.80;81.70;;;;;;10283927;28;20206;-96
2022/04/07 09:13:17;;;;;;;4.80;3.47;;;16.30;74.10;;;;;;10289870;28;20207;-96
2022/04/07 09:18:24;;;;;;;6.07;3.30;;;16.50;73.30;;;;;;10278566;28;20225;-95
2022/04/07 09:23:35;;;;;;;5.37;3.97;;;15.70;74.50;;;;;;10305059;28;20195;-96
2022/04/07 09:28:38;;;;;;;3.93;3.53;;;15.70;75.60;;;;;;10292024;28;20277;-96
2022/04/07 09:33:42;;;;;;;4.07;2.60;;;15.90;74.80;;;;;;10307413;28;20214;-95
2022/04/07 09:38:52;;;;;;;4.03;3.23;;;16.00;72.90;;;;;;10295319;28;20280;-96
2022/04/07 09:44:00;;;;;;;7.67;2.83;;;16.50;72.10;;;;;;10283913;28;20564;-95
2022/04/07 09:49:06;;;;;;;4.20;2.70;;;15.90;70.50;;;;;;10261277;28;20260;-94
2022/04/07 09:54:10;;;;;;;7.87;2.67;;;16.30;71.30;;;;;;10272912;28;20206;-95
2022/04/07 09:59:18;;;;;;;3.83;2.23;;;15.70;71.70;;;;;;10251206;28;20270;-93
2022/04/07 10:04:22;;;;;;;4.30;2.73;;;15.60;72.00;;;;;;10282755;28;20252;-92
2022/04/07 10:09:27;;;;;;;3.97;2.80;;;15.70;72.00;;;;;;10274522;28;20201;-94
2022/04/07 10:14:34;;;;;;;2.53;2.10;;;16.00;70.70;;;;;;10268912;28;20543;-94
2022/04/07 10:19:52;;;;;;;4.10;2.33;;;15.70;72.40;;;;;;10263360;28;20284;-93
2022/04/07 10:25:01;;;;;;;2.63;2.20;;;15.60;71.40;;;;;;10260813;28;20198;-93
2022/04/07 10:30:14;;;;;;;3.37;2.80;;;15.60;69.80;;;;;;10271242;28;20214;-93
2022/04/07 10:35:39;;;;;;;6.10;2.63;;;15.70;71.30;;;;;;10279678;28;20198;-93
2022/04/07 10:40:51;;;;;;;3.03;2.30;;;16.20;70.70;;;;;;10273216;28;20265;-95
2022/04/07 10:46:05;;;;;;;5.80;2.63;;;15.40;69.50;;;;;;10278343;28;20815;-94
2022/04/07 10:51:10;;;;;;;3.80;2.53;;;15.80;68.70;;;;;;10249915;28;20235;-94
2022/04/07 10:56:24;;;;;;;5.27;2.17;;;15.90;71.60;;;;;;10262196;28;20198;-95
2022/04/07 11:01:32;;;;;;;3.80;3.40;;;15.70;70.00;;;;;;10247404;28;20265;-93
2022/04/07 11:06:35;;;;;;;3.60;2.63;;;15.90;72.50;;;;;;10246286;28;20606;-94
2022/04/07 11:11:53;;;;;;;6.07;2.27;;;16.10;68.80;;;;;;10248237;29;20226;-94
2022/04/07 11:16:58;;;;;;;7.80;2.23;;;16.30;69.80;;;;;;10248620;29;20635;-95
2022/04/07 11:22:09;;;;;;;3.97;2.53;;;15.80;71.10;;;;;;10247992;29;20325;-95
2022/04/07 11:27:44;;;;;;;3.73;2.60;;;16.00;72.60;;;;;;10249220;29;20190;-94
2022/04/07 11:33:27;;;;;;;6.53;3.23;;;16.00;70.50;;;;;;10164036;29;20652;-95
2022/04/07 11:38:31;;;;;;;10.50;2.80;;;16.80;70.60;;;;;;10174738;29;20287;-93
2022/04/07 11:43:37;;;;;;;10.07;2.40;;;16.10;69.80;;;;;;10167789;29;20247;-93
2022/04/07 11:48:40;;;;;;;7.13;3.57;;;15.70;68.40;;;;;;10183392;29;20657;-94
2022/04/07 11:53:52;;;;;;;11.13;3.17;;;15.70;71.00;;;;;;10130107;29;20272;-93
2022/04/07 11:59:06;;;;;;;5.07;2.40;;;16.20;71.40;;;;;;10126070;29;20381;-93
2022/04/07 12:04:11;;;;;;;9.57;2.47;;;16.30;69.60;;;;;;10141472;29;20237;-93
2022/04/07 12:09:18;;;;;;;4.10;3.27;;;15.80;69.70;;;;;;10206051;28;20253;-94
2022/04/07 12:14:24;;;;;;;4.20;2.37;;;16.10;71.00;;;;;;10262325;28;20304;-92
2022/04/07 12:19:42;;;;;;;5.50;2.30;;;16.00;70.10;;;;;;10268978;28;20238;-94
2022/04/07 12:25:03;;;;;;;2.67;2.03;;;16.00;68.10;;;;;;10247739;28;20757;-92
2022/04/07 12:30:07;;;;;;;6.73;2.07;;;15.90;68.20;;;;;;10235230;29;20280;-92
2022/04/07 12:35:09;;;;;;;2.53;1.80;;;16.00;70.00;;;;;;10250091;28;20638;-93
2022/04/07 12:40:15;;;;;;;4.13;2.60;;;16.00;66.70;;;;;;10273248;28;20714;-91
2022/04/07 12:45:17;;;;;;;7.83;2.87;;;15.90;69.10;;;;;;10271533;28;20222;-92
2022/04/07 12:50:27;;;;;;;15.57;2.30;;;15.90;68.70;;;;;;10250663;28;20230;-94
2022/04/07 12:55:35;;;;;;;8.17;3.40;;;15.80;67.60;;;;;;10250667;28;20234;-92
2022/04/07 13:00:37;;;;;;;7.00;2.40;;;15.90;68.40;;;;;;10234609;29;20301;-92
2022/04/07 13:05:42;;;;;;;10.53;2.37;;;16.10;67.60;;;;;;10279913;28;20206;-92
2022/04/07 13:10:44;;;;;;;3.87;3.03;;;16.10;67.40;;;;;;10260888;28;20206;-92
2022/04/07 13:15:47;;;;;;;8.67;1.97;;;16.60;68.80;;;;;;10271720;28;20538;-93
2022/04/07 13:20:50;;;;;;;10.57;2.43;;;16.60;67.70;;;;;;10257460;28;20672;-93
2022/04/07 13:25:53;;;;;;;13.17;1.90;;;16.70;65.60;;;;;;10255821;28;20542;-92
2022/04/07 13:30:56;;;;;;;10.07;3.40;;;16.50;64.80;;;;;;10262036;28;20225;-92
2022/04/07 13:35:58;;;;;;;15.60;2.00;;;16.70;69.10;;;;;;10286056;28;20696;-93
2022/04/07 13:41:03;;;;;;;8.60;2.07;;;16.60;64.70;;;;;;10273585;28;20217;-95
2022/04/07 13:46:06;;;;;;;8.30;2.33;;;16.40;65.10;;;;;;10238388;28;20199;-96
2022/04/07 13:51:08;;;;;;;23.13;2.53;;;16.30;67.10;;;;;;10289626;28;20190;-93
2022/04/07 13:56:11;;;;;;;15.67;2.63;;;16.30;64.70;;;;;;10289739;28;20524;-87
2022/04/07 14:01:19;;;;;;;5.23;2.20;;;15.80;65.20;;;;;;10312986;28;20257;-88
2022/04/07 14:06:22;;;;;;;5.23;1.60;;;15.50;66.10;;;;;;10346222;28;20189;-88
2022/04/07 14:11:25;;;;;;;15.17;1.90;;;15.40;66.50;;;;;;10345168;28;20182;-87
2022/04/07 14:16:27;;;;;;;8.27;2.50;;;15.30;66.80;;;;;;10345567;28;20189;-88
2022/04/07 14:21:31;;;;;;;6.47;3.10;;;15.30;67.30;;;;;;10344187;28;20241;-87
2022/04/07 14:26:37;;;;;;;11.63;2.77;;;15.20;68.80;;;;;;10344253;28;20221;-87
2022/04/07 14:31:40;;;;;;;20.47;3.83;;;15.30;68.40;;;;;;10344284;28;20200;-87
2022/04/07 14:36:45;;;;;;;15.03;2.53;;;15.50;68.60;;;;;;10344797;28;20205;-87
2022/04/07 14:41:47;;;;;;;8.57;1.50;;;15.20;71.70;;;;;;10313622;28;20253;-92
2022/04/07 14:46:50;;;;;;;14.17;2.23;;;15.10;72.80;;;;;;10309959;28;20187;-92
2022/04/07 14:51:54;;;;;;;7.80;2.03;;;15.20;72.60;;;;;;10304302;28;20249;-90
2022/04/07 14:56:57;;;;;;;8.93;1.20;;;15.00;72.00;;;;;;10332112;22;20591;-81
2022/04/07 15:02:00;;;;;;;12.30;3.30;;;14.80;71.30;;;;;;10347853;28;20278;-81
2022/04/07 15:07:03;;;;;;;9.13;1.70;;;14.80;72.00;;;;;;10381624;28;20298;-81
2022/04/07 15:12:07;;;;;;;9.33;4.40;;;14.50;71.90;;;;;;10410316;28;20687;-82
2022/04/07 15:17:10;;;;;;;12.17;6.27;;;14.50;72.30;;;;;;10407780;28;20223;-81
2022/04/07 15:22:13;;;;;;;9.07;3.03;;;14.50;72.00;;;;;;10404587;28;20247;-82
2022/04/07 15:27:15;;;;;;;6.70;2.57;;;14.60;72.00;;;;;;10400711;28;20620;-81
2022/04/07 15:32:18;;;;;;;6.80;2.77;;;14.50;72.60;;;;;;10364008;28;20246;-82
2022/04/07 15:37:23;;;;;;;8.20;4.00;;;14.20;76.00;;;;;;10396864;28;20227;-80
2022/04/07 15:42:25;;;;;;;9.10;3.50;;;14.10;78.90;;;;;;10408501;28;20316;-80
2022/04/07 15:47:28;;;;;;;8.23;3.53;;;14.10;79.10;;;;;;10372570;28;20281;-80
2022/04/07 15:52:31;;;;;;;4.97;2.00;;;14.00;78.70;;;;;;10357867;28;20206;-79
2022/04/07 15:57:34;;;;;;;7.30;2.60;;;14.30;75.60;;;;;;10367795;28;20320;-80
2022/04/07 16:02:37;;;;;;;4.57;2.07;;;14.40;76.60;;;;;;10367850;28;20248;-82
2022/04/07 16:07:39;;;;;;;8.23;2.40;;;14.30;74.90;;;;;;10377324;28;20594;-80
2022/04/07 16:12:43;;;;;;;4.77;2.60;;;14.50;73.10;;;;;;10366954;28;20584;-82
2022/04/07 16:17:46;;;;;;;24.63;3.33;;;14.90;73.60;;;;;;10403704;28;20288;-80
2022/04/07 16:22:48;;;;;;;10.43;2.60;;;14.60;73.00;;;;;;10417120;28;20292;-83
2022/04/07 16:27:51;;;;;;;6.47;2.17;;;14.70;72.70;;;;;;10380518;28;20192;-83
2022/04/07 16:32:53;;;;;;;6.20;2.53;;;15.10;71.80;;;;;;10405382;28;20224;-83
2022/04/07 16:37:57;;;;;;;18.33;2.97;;;14.50;74.20;;;;;;10376963;28;20624;-83
2022/04/07 16:42:59;;;;;;;17.33;2.97;;;14.50;72.40;;;;;;10416299;28;20702;-81
2022/04/07 16:48:03;;;;;;;12.50;1.57;;;14.40;73.50;;;;;;10407496;28;20220;-86
2022/04/07 16:53:06;;;;;;;10.63;2.10;;;14.70;73.40;;;;;;10368929;28;20648;-80
2022/04/07 16:58:08;;;;;;;13.47;2.10;;;14.00;80.60;;;;;;10399879;28;20275;-79
2022/04/07 17:03:11;;;;;;;9.83;3.00;;;14.00;83.30;;;;;;10373393;28;20243;-80
2022/04/07 17:08:14;;;;;;;5.33;2.40;;;13.40;89.50;;;;;;10391896;28;20220;-77
2022/04/07 17:13:16;;;;;;;10.73;3.73;;;13.50;91.00;;;;;;10371099;28;20224;-79
2022/04/07 17:18:19;;;;;;;9.33;3.27;;;12.40;97.20;;;;;;10355006;28;20266;-78
2022/04/07 17:23:22;;;;;;;11.33;4.20;;;12.20;99.90;;;;;;10357842;28;20323;-80
2022/04/07 17:28:25;;;;;;;8.17;3.80;;;11.70;99.90;;;;;;10373068;28;20227;-80
2022/04/07 17:33:29;;;;;;;8.83;3.67;;;11.80;99.90;;;;;;10380412;28;20664;-81
2022/04/07 17:38:33;;;;;;;4.90;3.37;;;11.30;99.90;;;;;;10372167;28;20303;-81
2022/04/07 17:43:35;;;;;;;6.53;3.83;;;11.30;99.90;;;;;;10375574;28;20249;-81
2022/04/07 17:48:39;;;;;;;3.20;2.90;;;11.00;99.90;;;;;;10371904;28;20223;-83
2022/04/07 17:53:41;;;;;;;4.73;1.80;;;16.50;84.30;;;;;;10387939;28;20281;-82
2022/04/07 17:58:43;;;;;;;2.97;2.50;;;16.20;83.90;;;;;;10364087;28;20282;-81
2022/04/07 18:03:46;;;;;;;4.87;2.50;;;16.50;81.90;;;;;;10351165;28;20294;-84
2022/04/07 18:08:48;;;;;;;4.70;2.67;;;16.30;81.30;;;;;;10350806;28;20220;-82
2022/04/07 18:13:53;;;;;;;3.20;2.13;;;15.00;87.10;;;;;;10356355;28;20236;-82
2022/04/07 18:18:55;;;;;;;4.27;2.10;;;16.00;82.60;;;;;;10374263;28;20255;-88
2022/04/07 18:23:58;;;;;;;3.57;2.40;;;16.00;81.20;;;;;;10392310;28;20643;-87
2022/04/07 18:29:02;;;;;;;2.70;2.23;;;14.90;85.00;;;;;;10363256;28;20277;-84
2022/04/07 18:34:06;;;;;;;3.53;2.60;;;14.90;84.00;;;;;;10368230;28;20672;-83
2022/04/07 18:39:10;;;;;;;5.50;2.70;;;15.80;80.70;;;;;;10372544;28;20237;-84
2022/04/07 18:44:12;;;;;;;4.13;2.30;;;16.00;79.50;;;;;;10368652;28;20248;-82
2022/04/07 18:49:15;;;;;;;6.43;2.90;;;;;;;;;;10367438;28;20232;-82
2022/04/07 18:54:19;;;;;;;4.37;3.00;;;14.70;79.50;;;;;;10374664;28;20669;-84
2022/04/07 18:59:22;;;;;;;3.60;3.17;;;15.20;79.20;;;;;;10381051;28;20238;-83
2022/04/07 19:04:24;;;;;;;4.53;2.40;;;16.00;77.80;;;;;;10389333;28;20651;-81
2022/04/07 19:09:27;;;;;;;2.60;2.40;;;15.60;78.60;;;;;;10364089;28;20677;-82
2022/04/07 19:14:30;;;;;;;3.13;2.50;;;15.70;78.80;;;;;;10371844;28;20294;-80
2022/04/07 19:19:32;;;;;;;4.63;3.00;;;15.40;78.30;;;;;;10384418;28;20208;-82
2022/04/07 19:24:35;;;;;;;3.47;2.53;;;14.80;79.70;;;;;;10373991;28;20251;-83
2022/04/07 19:29:37;;;;;;;5.53;3.17;;;15.10;78.00;;;;;;10348644;28;20302;-83
2022/04/07 19:34:40;;;;;;;9.03;3.80;;;13.70;80.80;;;;;;10367289;28;20235;-82
2022/04/07 19:39:42;;;;;;;8.17;2.90;;;13.60;81.50;;;;;;10369216;28;20232;-83
2022/04/07 19:44:45;;;;;;;8.70;3.87;;;12.10;85.80;;;;;;10369811;28;20309;-82
2022/04/07 19:49:47;;;;;;;8.23;4.73;;;11.60;90.20;;;;;;10368473;28;20281;-88
2022/04/07 19:54:50;;;;;;;14.67;5.43;;;9.70;96.30;;;;;;10358285;28;20235;-82
2022/04/07 19:59:52;;;;;;;12.80;4.17;;;10.20;97.00;;;;;;10368252;28;20288;-82
2022/04/07 20:04:55;;;;;;;3.97;2.93;;;8.40;99.90;;;;;;10377814;28;20250;-83
2022/04/07 20:09:57;;;;;;;15.37;6.97;;;9.00;99.90;;;;;;10366567;28;20281;-82
2022/04/07 20:15:00;;;;;;;5.47;4.00;;;9.30;99.90;;;;;;10377772;28;20303;-82
2022/04/07 20:20:04;;;;;;;7.60;3.47;;;8.30;99.90;;;;;;10367932;28;20649;-87
2022/04/07 20:25:08;;;;;;;6.87;3.30;;;7.50;99.90;;;;;;10367139;28;20266;-83
2022/04/07 20:30:11;;;;;;;8.67;3.57;;;7.70;99.90;;;;;;10371989;28;20730;-86
2022/04/07 20:35:13;;;;;;;6.00;3.83;;;7.60;99.90;;;;;;10382933;28;20236;-84
2022/04/07 20:40:20;;;;;;;6.33;3.77;;;7.40;99.90;;;;;;10353804;28;20201;-83
2022/04/07 20:45:22;;;;;;;7.37;4.07;;;7.70;99.90;;;;;;10366433;28;20205;-82
2022/04/07 20:50:27;;;;;;;8.43;4.73;;;7.70;99.90;;;;;;10367734;28;20224;-82
2022/04/07 20:55:30;;;;;;;5.40;3.63;;;7.70;99.90;;;;;;10374534;28;20751;-89
2022/04/07 21:00:34;;;;;;;6.17;3.87;;;8.10;99.90;;;;;;10381428;28;20251;-81
2022/04/07 21:05:36;;;;;;;8.10;3.67;;;8.00;99.90;;;;;;10380969;28;20231;-82
2022/04/07 21:10:39;;;;;;;8.77;3.73;;;8.30;99.90;;;;;;10378460;28;20255;-81
2022/04/07 21:15:43;;;;;;;6.57;3.57;;;9.60;99.90;;;;;;10378736;28;20263;-80
2022/04/07 21:20:45;;;;;;;5.47;3.43;;;10.60;99.90;;;;;;10387581;28;20698;-80
2022/04/07 21:25:48;;;;;;;7.57;3.57;;;10.20;99.90;;;;;;10373781;28;20228;-79
2022/04/07 21:30:50;;;;;;;4.53;2.77;;;11.40;99.90;;;;;;10412541;28;20230;-79
2022/04/07 21:35:54;;;;;;;4.10;2.57;;;12.30;99.40;;;;;;10392946;28;20909;-82
2022/04/07 21:40:57;;;;;;;3.50;3.20;;;13.40;94.00;;;;;;10368273;28;20255;-84
2022/04/07 21:46:00;;;;;;;4.33;3.07;;;14.10;90.90;;;;;;10368449;28;20621;-82
2022/04/07 21:51:02;;;;;;;3.17;2.50;;;14.20;87.40;;;;;;10369191;28;20247;-84
2022/04/07 21:56:05;;;;;;;5.13;2.80;;;13.20;90.00;;;;;;10368546;28;20228;-83
2022/04/07 22:01:08;;;;;;;3.17;1.93;;;12.60;86.00;;;;;;10354553;28;20306;-82
2022/04/07 22:06:32;;;;;;;3.07;2.70;;;13.70;81.90;;;;;;10243550;28;20285;-82
2022/04/07 22:11:34;;;;;;;3.27;2.30;;;14.00;87.20;;;;;;10244241;28;20382;-82
2022/04/07 22:16:38;;;;;;;3.70;2.47;;;14.00;85.10;;;;;;10303446;22;20248;-82
2022/04/07 22:21:41;;;;;;;7.67;2.80;;;;;;;;;;10367500;28;20260;-82
2022/04/07 22:26:44;;;;;;;3.97;2.20;;;12.40;86.90;;;;;;10368444;28;20263;-83
2022/04/07 22:31:46;;;;;;;3.43;2.80;;;13.00;90.20;;;;;;10370100;28;20228;-82
2022/04/07 22:36:49;;;;;;;3.40;2.33;;;11.40;91.90;;;;;;10385742;28;20691;-82
2022/04/07 22:41:52;;;;;;;4.87;2.73;;;11.40;91.00;;;;;;10384831;28;20255;-82
2022/04/07 22:46:55;;;;;;;6.87;2.60;;;11.10;93.70;;;;;;10384668;28;20227;-83
2022/04/07 22:51:57;;;;;;;4.20;1.87;;;11.70;90.40;;;;;;10370441;28;20232;-83
2022/04/07 22:57:00;;;;;;;3.00;2.47;;;12.40;83.90;;;;;;10370694;28;20232;-82
2022/04/07 23:02:03;;;;;;;2.43;2.23;;;13.10;86.50;;;;;;10369139;28;20694;-82
2022/04/07 23:07:05;;;;;;;3.20;2.60;;;13.90;85.50;;;;;;10389108;28;20540;-82
2022/04/07 23:12:09;;;;;;;2.60;2.17;;;13.80;84.40;;;;;;10377667;28;20278;-82
2022/04/07 23:17:12;;;;;;;3.90;2.63;;;15.00;80.70;;;;;;10369373;28;20259;-82
2022/04/07 23:22:15;;;;;;;3.47;2.53;;;15.00;80.50;;;;;;10385618;28;20243;-82
2022/04/07 23:27:17;;;;;;;3.27;2.10;;;15.40;78.20;;;;;;10422219;28;20277;-82
2022/04/07 23:32:20;;;;;;;3.03;2.57;;;14.30;77.50;;;;;;10410371;28;20235;-82
2022/04/07 23:37:22;;;;;;;5.80;4.40;;;15.20;78.10;;;;;;10378570;28;20688;-82
2022/04/07 23:42:25;;;;;;;3.93;2.50;;;15.30;77.00;;;;;;10384428;28;20767;-82
2022/04/07 23:47:28;;;;;;;2.73;1.73;;;15.30;76.90;;;;;;10367387;28;20624;-82
2022/04/07 23:52:30;;;;;;;4.47;2.93;;;14.90;71.40;;;;;;10367060;28;20353;-82
2022/04/07 23:57:33;;;;;;;3.77;2.60;;;14.00;79.40;;;;;;10369412;28;20621;-82
